Saturday, January 20, 2018, 8:22 AM EST
Back to Local

K12N, Aeroflex-andover Airport

Location: Newton, NJ, United States Lat: 41.017
Local Time: 8:22 AM EST (13:22 GMT) Lon: -74.733
Time Zone: US/Eastern Elev: 583 ft

Show me the last for .
Show Coded

Time T Td Feel RH Dir Speed Gust Alt SLP Vis Weather Sky Remarks
2018-01-20 06:54 34 21 28 58 200° 7 - 29.85 29.88 0 6-hr Min Temp (7am): 17.1°F
6-hr Max Temp (7am): 34.0°F
2018-01-20 05:54 32 20 27 60 Variable 5 - 29.85 29.88 0 None
2018-01-20 04:54 32 21 26 63 200° 6 - 29.86 29.89 0 None
2018-01-20 03:54 30 20 26 65 180° 3 - 29.87 29.90 0 None
2018-01-20 01:54 20 17 - 88 - Calm - 29.89 29.93 0 None
2018-01-20 00:54 17 15 - 91 - Calm - 29.90 29.93 0 6-hr Min Temp (1am): 16.0°F
6-hr Max Temp (1am): 23.0°F
2018-01-19 23:54 18 15 - 88 - Calm - 29.92 29.96 0 24-hr Min Temp (12am): 1.0°F
24-hr Max Temp (12am): 37.0°F
2018-01-19 22:54 21 17 - 84 - Calm - 29.94 29.98 0 None
2018-01-19 21:54 19 16 14 87 170° 3 - 29.95 30.00 0 None
2018-01-19 20:54 20 17 - 88 - Calm - 29.96 30.01 0 None
2018-01-19 19:54 21 18 - 87 - Calm - 29.95 30.01 0 None
2018-01-19 18:54 23 18 - 80 - Calm - 29.95 30.01 0 6-hr Min Temp (7pm): 21.9°F
6-hr Max Temp (7pm): 37.0°F
2018-01-19 17:54 28 18 24 65 160° 3 - 29.96 30.01 0 None
2018-01-19 16:54 33 18 30 53 190° 3 - 29.95 30.00 0 None
2018-01-19 15:54 35 18 31 49 Variable 5 - 29.94 29.99 0 None
2018-01-19 14:54 35 18 30 49 190° 6 - 29.94 29.99 0 None
2018-01-19 13:54 33 17 30 51 Variable 3 - 29.96 30.01 0 None
2018-01-19 12:54 32 16 26 51 Variable 7 - 29.98 30.03 0 6-hr Min Temp (1pm): 1.9°F
6-hr Max Temp (1pm): 32.0°F
2018-01-19 11:54 28 15 23 57 190° 5 - 30.01 30.06 0 None
2018-01-19 10:54 27 14 22 57 200° 5 - 30.04 30.09 0 None
2018-01-19 09:54 18 17 - 96 - Calm - 30.06 30.11 0 None
2018-01-19 08:54 8 7 - 95 - Calm - 30.05 30.11 0 None

Support USWX by starting your Amazon purchase here.